Time;durP1;ratioP1;P1;durP2;ratioP2;P2;SDS_P1;SDS_P2;PMS_P1;PMS_P2;Temp;Humidity;BMP_temperature;BMP_pressure;BME280_temperature;BME280_humidity;BME280_pressure;Samples;Min_cycle;Max_cycle;Signal;HPM_P1;HPM_P2
2023/07/21 00:02:56;;;;;;;14.35;8.45;;;17.00;99.90;;;;;;25588914;23;20013;-57
2023/07/21 00:12:58;;;;;;;15.43;9.80;;;16.90;99.90;;;;;;25588333;23;20001;-51
2023/07/21 00:22:59;;;;;;;13.65;10.27;;;16.60;99.90;;;;;;25588338;23;20009;-49
2023/07/21 00:33:01;;;;;;;18.08;10.10;;;16.20;99.90;;;;;;25588145;23;20005;-56
2023/07/21 00:43:04;;;;;;;16.92;9.88;;;16.10;99.90;;;;;;25594031;23;20388;-49
2023/07/21 00:53:06;;;;;;;14.93;7.82;;;16.30;99.90;;;;;;25593880;23;20005;-56
2023/07/21 01:03:13;;;;;;;11.13;7.72;;;16.60;99.90;;;;;;25595231;23;20012;-46
2023/07/21 01:13:18;;;;;;;14.13;8.77;;;16.70;99.90;;;;;;25592681;23;20005;-46
2023/07/21 01:23:19;;;;;;;13.55;7.90;;;16.80;99.90;;;;;;25594149;23;20005;-46
2023/07/21 01:33:22;;;;;;;13.73;8.60;;;17.00;99.90;;;;;;25594136;23;20001;-45
2023/07/21 01:43:24;;;;;;;15.00;10.48;;;17.00;99.90;;;;;;25591523;23;20013;-55
2023/07/21 01:53:29;;;;;;;22.17;11.43;;;16.90;99.90;;;;;;25591603;23;20008;-51
2023/07/21 02:03:32;;;;;;;19.88;12.73;;;16.80;99.90;;;;;;25593050;23;20605;-54
2023/07/21 02:13:33;;;;;;;20.30;14.73;;;16.60;99.90;;;;;;25592498;23;20288;-51
2023/07/21 02:23:35;;;;;;;28.00;16.60;;;16.40;99.90;;;;;;25591096;23;20009;-50
2023/07/21 02:33:37;;;;;;;26.42;16.60;;;16.20;99.90;;;;;;25591191;23;20009;-48
2023/07/21 02:43:39;;;;;;;16.85;11.88;;;15.90;99.90;;;;;;25591381;23;20048;-44
2023/07/21 02:53:40;;;;;;;14.88;10.45;;;15.30;99.90;;;;;;25589825;23;20453;-54
2023/07/21 03:03:44;;;;;;;14.00;10.07;;;14.70;99.90;;;;;;25588921;23;20013;-44
2023/07/21 03:13:49;;;;;;;15.82;11.95;;;14.30;99.90;;;;;;25629956;23;20009;-52
2023/07/21 03:23:52;;;;;;;18.70;12.25;;;14.00;99.90;;;;;;25588930;23;20441;-49
2023/07/21 03:33:59;;;;;;;22.10;15.50;;;13.90;99.90;;;;;;25629475;23;20067;-52
2023/07/21 03:44:04;;;;;;;20.33;14.00;;;13.90;99.90;;;;;;25589170;23;20017;-52
2023/07/21 03:54:07;;;;;;;20.77;14.05;;;13.80;99.90;;;;;;25587698;23;20452;-51
2023/07/21 04:04:09;;;;;;;24.55;14.63;;;13.80;99.90;;;;;;25587719;23;20016;-54
2023/07/21 04:14:11;;;;;;;25.40;14.77;;;13.90;99.90;;;;;;25593297;23;20004;-57
2023/07/21 04:24:13;;;;;;;27.40;18.52;;;14.20;99.90;;;;;;25598535;23;20005;-54
2023/07/21 04:34:15;;;;;;;32.25;20.63;;;14.50;99.90;;;;;;25596450;23;20420;-56
2023/07/21 04:44:20;;;;;;;33.72;22.27;;;14.90;99.90;;;;;;25569434;23;20021;-45
2023/07/21 04:54:22;;;;;;;33.72;21.67;;;15.10;99.90;;;;;;25593725;23;20021;-47
2023/07/21 05:04:25;;;;;;;33.58;22.05;;;15.50;99.90;;;;;;25593565;23;20380;-45
2023/07/21 05:14:27;;;;;;;29.73;20.60;;;15.80;99.90;;;;;;25592971;23;20021;-46
2023/07/21 05:24:42;;;;;;;22.00;15.35;;;16.10;99.90;;;;;;25635195;23;20372;-52
2023/07/21 05:34:49;;;;;;;15.48;12.27;;;16.70;99.90;;;;;;25593743;23;20444;-58
2023/07/21 05:44:51;;;;;;;13.18;10.18;;;16.90;99.90;;;;;;25592877;23;20021;-58
2023/07/21 05:54:53;;;;;;;15.45;9.13;;;17.50;99.90;;;;;;25590297;23;20013;-57
2023/07/21 06:04:59;;;;;;;10.98;7.90;;;18.00;99.90;;;;;;25632234;23;20013;-57
2023/07/21 06:15:08;;;;;;;12.82;8.27;;;18.00;99.90;;;;;;25633052;23;20005;-56
2023/07/21 06:25:20;;;;;;;8.68;5.20;;;17.90;99.90;;;;;;25631530;23;20067;-58
2023/07/21 06:35:24;;;;;;;7.43;3.88;;;19.80;99.90;;;;;;25589266;23;20063;-59
2023/07/21 06:45:39;;;;;;;6.20;3.40;;;24.30;99.90;;;;;;25630594;23;20071;-60
2023/07/21 06:55:59;;;;;;;6.90;4.07;;;26.90;99.90;;;;;;25630602;23;20001;-60
2023/07/21 07:06:01;;;;;;;5.20;4.20;;;27.10;99.90;;;;;;25590470;23;20005;-60
2023/07/21 07:16:03;;;;;;;6.35;4.35;;;25.80;99.90;;;;;;25589979;23;20005;-60
2023/07/21 07:26:05;;;;;;;6.90;4.55;;;25.10;99.90;;;;;;25587890;23;20001;-60
2023/07/21 07:36:07;;;;;;;5.78;4.53;;;26.40;99.90;;;;;;25589170;23;20013;-61
2023/07/21 07:46:09;;;;;;;7.57;5.03;;;28.10;98.70;;;;;;25588462;23;20009;-60
2023/07/21 07:56:15;;;;;;;8.77;5.35;;;27.00;98.90;;;;;;25588430;23;20485;-60
2023/07/21 08:06:16;;;;;;;7.55;5.15;;;24.80;99.90;;;;;;25588524;23;20505;-60
2023/07/21 08:16:18;;;;;;;6.80;5.18;;;23.70;99.90;;;;;;25588210;23;20008;-60
2023/07/21 08:26:20;;;;;;;8.20;6.05;;;23.20;99.90;;;;;;25587123;23;20056;-50
2023/07/21 08:36:23;;;;;;;9.55;6.53;;;23.00;99.90;;;;;;25587619;23;20013;-59
2023/07/21 08:46:25;;;;;;;8.10;6.53;;;22.70;99.90;;;;;;25587413;23;20079;-46
2023/07/21 08:56:26;;;;;;;6.28;5.13;;;22.90;99.90;;;;;;25587655;23;20499;-59
2023/07/21 09:06:28;;;;;;;7.05;5.85;;;23.40;99.90;;;;;;25594933;23;20032;-59
2023/07/21 09:16:32;;;;;;;8.93;5.88;;;23.10;99.90;;;;;;25594544;23;20005;-59
2023/07/21 09:26:34;;;;;;;8.63;6.60;;;22.10;99.90;;;;;;25594085;23;20012;-58
2023/07/21 09:36:42;;;;;;;13.15;9.88;;;21.00;99.90;;;;;;25594927;23;20040;-59
2023/07/21 09:46:44;;;;;;;13.27;8.90;;;19.90;99.90;;;;;;25634665;23;20009;-59
2023/07/21 09:56:47;;;;;;;10.68;7.13;;;19.10;99.90;;;;;;25592886;23;20004;-59
2023/07/21 10:06:50;;;;;;;4.25;2.97;;;18.80;99.90;;;;;;25592195;23;20009;-57
2023/07/21 10:16:51;;;;;;;6.93;5.72;;;17.40;99.90;;;;;;25590699;23;20008;-44
2023/07/21 10:27:03;;;;;;;3.20;1.88;;;16.90;99.90;;;;;;25591445;23;20313;-44
2023/07/21 10:37:05;;;;;;;7.97;3.00;;;16.20;99.90;;;;;;25623882;23;20009;-54
2023/07/21 10:47:13;;;;;;;6.78;3.60;;;14.90;99.90;;;;;;25591101;23;20032;-44
2023/07/21 10:57:15;;;;;;;3.80;2.08;;;13.90;99.90;;;;;;25605061;23;20008;-55
2023/07/21 11:07:19;;;;;;;5.18;2.70;;;13.80;99.90;;;;;;25590855;23;20056;-56
2023/07/21 11:17:22;;;;;;;5.68;3.08;;;14.00;99.90;;;;;;25589972;23;20083;-59
2023/07/21 11:27:23;;;;;;;9.20;5.70;;;13.40;99.90;;;;;;25589462;23;20333;-51
2023/07/21 11:37:26;;;;;;;8.88;6.40;;;13.50;99.90;;;;;;25589135;23;20009;-45
2023/07/21 11:47:30;;;;;;;3.90;2.40;;;14.80;99.90;;;;;;25589131;23;20277;-51
2023/07/21 11:57:32;;;;;;;4.28;1.58;;;16.50;99.90;;;;;;25588533;23;20009;-59
2023/07/21 12:07:34;;;;;;;2.50;1.80;;;18.70;99.90;;;;;;25588437;23;20012;-48
2023/07/21 12:17:36;;;;;;;2.20;1.20;;;19.40;99.90;;;;;;25588539;23;20307;-60
2023/07/21 12:27:38;;;;;;;2.53;1.50;;;20.70;99.70;;;;;;25586886;23;20017;-47
2023/07/21 12:37:40;;;;;;;1.92;1.42;;;22.90;95.90;;;;;;25592530;23;20079;-57
2023/07/21 12:47:41;;;;;;;6.70;2.20;;;24.40;95.80;;;;;;25595890;23;20085;-49
2023/07/21 12:57:43;;;;;;;2.65;1.58;;;24.70;92.70;;;;;;25596677;23;20032;-60
2023/07/21 13:07:46;;;;;;;4.20;2.83;;;23.60;96.70;;;;;;25595030;23;20005;-47
2023/07/21 13:17:48;;;;;;;4.43;2.63;;;24.10;99.90;;;;;;25594618;23;20317;-47
2023/07/21 13:27:50;;;;;;;4.82;3.42;;;23.00;97.60;;;;;;25594250;23;20001;-47
2023/07/21 13:37:51;;;;;;;5.43;3.60;;;22.40;98.60;;;;;;25591769;23;20017;-59
2023/07/21 13:47:53;;;;;;;5.32;3.22;;;22.30;99.90;;;;;;25591757;23;20436;-47
2023/07/21 13:57:55;;;;;;;8.48;4.05;;;22.60;99.90;;;;;;25592992;23;20002;-60
2023/07/21 14:07:56;;;;;;;4.43;2.75;;;23.50;97.30;;;;;;25592752;23;20005;-59
2023/07/21 14:17:58;;;;;;;6.20;3.38;;;23.00;99.70;;;;;;25590790;23;20013;-48
2023/07/21 14:28:00;;;;;;;5.85;3.00;;;22.30;99.90;;;;;;25591050;23;20020;-59
2023/07/21 14:38:02;;;;;;;3.55;2.75;;;22.00;99.90;;;;;;25591457;23;20013;-59
2023/07/21 14:48:04;;;;;;;5.47;2.83;;;21.60;99.90;;;;;;25591379;23;20332;-59
2023/07/21 14:58:06;;;;;;;3.95;2.90;;;21.60;99.90;;;;;;25590365;23;20008;-59
2023/07/21 15:08:07;;;;;;;5.20;3.50;;;21.70;99.90;;;;;;25590028;23;20001;-60
2023/07/21 15:18:09;;;;;;;4.28;3.38;;;21.60;99.90;;;;;;25589736;23;20044;-59
2023/07/21 15:28:11;;;;;;;5.68;3.28;;;21.50;99.90;;;;;;25590138;23;20448;-59
2023/07/21 15:38:13;;;;;;;4.63;3.25;;;21.20;99.90;;;;;;25588689;23;20453;-59
2023/07/21 15:48:16;;;;;;;7.15;3.63;;;21.00;99.90;;;;;;25589115;23;20025;-52
2023/07/21 15:58:21;;;;;;;9.70;5.60;;;20.80;99.90;;;;;;25588489;23;20216;-59
2023/07/21 16:08:25;;;;;;;11.02;6.97;;;20.20;99.90;;;;;;25591118;23;20001;-48
2023/07/21 16:18:26;;;;;;;10.77;5.72;;;19.90;99.90;;;;;;25595457;23;20005;-59
2023/07/21 16:28:28;;;;;;;7.72;4.50;;;19.90;99.90;;;;;;25596513;23;20017;-59
2023/07/21 16:38:31;;;;;;;4.72;3.90;;;20.00;99.90;;;;;;25594642;23;20009;-59
2023/07/21 16:48:32;;;;;;;5.82;4.85;;;20.10;99.90;;;;;;25593814;23;20013;-51
2023/07/21 16:58:39;;;;;;;10.13;5.63;;;20.00;99.90;;;;;;25592568;23;20110;-59
2023/07/21 17:08:41;;;;;;;9.65;7.00;;;19.80;99.90;;;;;;25635369;23;20009;-59
2023/07/21 17:18:42;;;;;;;10.65;6.85;;;19.60;99.90;;;;;;25593610;23;20001;-59
2023/07/21 17:28:44;;;;;;;8.88;5.70;;;19.20;99.90;;;;;;25592172;23;20079;-58
2023/07/21 17:38:46;;;;;;;7.38;4.35;;;19.20;99.90;;;;;;25592031;23;20063;-59
2023/07/21 17:48:48;;;;;;;7.85;4.32;;;19.30;99.90;;;;;;25592645;23;20109;-59
2023/07/21 17:58:49;;;;;;;6.45;3.75;;;19.10;99.90;;;;;;25590940;23;20100;-59
2023/07/21 18:08:51;;;;;;;7.65;3.00;;;18.50;99.90;;;;;;25589497;23;20005;-59
2023/07/21 18:18:53;;;;;;;4.68;3.08;;;18.00;99.90;;;;;;25591375;23;20001;-59
2023/07/21 18:28:55;;;;;;;7.13;3.40;;;17.50;99.90;;;;;;25590514;23;20005;-59
2023/07/21 18:38:56;;;;;;;5.88;3.33;;;17.20;99.90;;;;;;25590699;23;20063;-49
2023/07/21 18:48:58;;;;;;;6.57;3.38;;;17.10;99.90;;;;;;25591547;23;20017;-46
2023/07/21 18:59:00;;;;;;;6.43;3.50;;;16.80;99.90;;;;;;25590397;23;20009;-59
2023/07/21 19:09:02;;;;;;;8.10;3.20;;;16.90;99.90;;;;;;25589941;23;20436;-58
2023/07/21 19:19:03;;;;;;;4.38;3.00;;;16.60;99.90;;;;;;25588773;23;20005;-58
2023/07/21 19:29:07;;;;;;;6.88;3.50;;;16.60;99.90;;;;;;25588901;23;20001;-59
2023/07/21 19:39:08;;;;;;;4.90;3.13;;;16.60;99.90;;;;;;25588258;23;20016;-58
2023/07/21 19:49:11;;;;;;;5.40;2.90;;;16.60;99.90;;;;;;25588393;23;20001;-57
2023/07/21 19:59:12;;;;;;;4.57;2.80;;;16.50;99.90;;;;;;25588575;23;20089;-58
2023/07/21 20:09:14;;;;;;;5.95;2.95;;;16.40;99.90;;;;;;25587922;23;20009;-58
2023/07/21 20:19:16;;;;;;;8.65;4.47;;;16.40;99.90;;;;;;25588060;23;20448;-57
2023/07/21 20:29:18;;;;;;;7.22;4.68;;;16.30;99.90;;;;;;25587282;23;20022;-50
2023/07/21 21:00:48;;;;;;;6.88;3.92;;;16.00;99.90;;;;;;25617051;22;2142297;-45
2023/07/21 21:10:55;;;;;;;5.15;2.83;;;14.30;99.90;;;;;;25743080;23;20004;-45
2023/07/21 21:21:11;;;;;;;4.40;2.92;;;13.80;99.90;;;;;;25667237;23;20005;-47
2023/07/21 21:31:15;;;;;;;6.35;4.22;;;13.40;99.90;;;;;;25787057;23;20435;-44
2023/07/21 21:41:17;;;;;;;7.20;4.13;;;12.90;99.90;;;;;;25745070;23;20008;-45
2023/07/21 21:51:18;;;;;;;6.28;3.97;;;12.70;99.90;;;;;;25717746;23;20510;-46
2023/07/21 22:01:20;;;;;;;5.00;3.78;;;12.40;99.90;;;;;;25760325;23;20032;-45
2023/07/21 22:11:21;;;;;;;5.38;3.53;;;12.20;99.90;;;;;;25689471;23;20016;-47
2023/07/21 22:21:23;;;;;;;5.88;3.92;;;12.10;99.90;;;;;;25715468;23;20000;-46
2023/07/21 22:31:25;;;;;;;5.53;3.55;;;12.10;99.90;;;;;;25715592;23;20379;-45
2023/07/21 22:41:26;;;;;;;4.35;3.17;;;12.00;99.90;;;;;;25713720;23;20012;-47
2023/07/21 22:51:28;;;;;;;7.78;2.90;;;12.10;99.90;;;;;;25715176;23;20019;-45
2023/07/21 23:01:29;;;;;;;3.78;2.33;;;12.20;99.90;;;;;;25714973;23;20328;-44
2023/07/21 23:11:31;;;;;;;3.83;2.55;;;12.10;99.90;;;;;;25714041;23;20004;-57
2023/07/21 23:21:33;;;;;;;3.35;2.15;;;12.20;99.90;;;;;;25714085;23;20008;-45
2023/07/21 23:31:34;;;;;;;3.92;2.67;;;12.50;99.90;;;;;;25714156;23;20062;-58
2023/07/21 23:41:36;;;;;;;5.45;2.65;;;12.60;99.90;;;;;;25687245;23;20008;-58
2023/07/21 23:51:38;;;;;;;3.45;2.00;;;12.50;99.90;;;;;;25713137;23;20020;-47
